Time;durP1;ratioP1;P1;durP2;ratioP2;P2;SDS_P1;SDS_P2;PMS_P1;PMS_P2;Temp;Humidity;BMP_temperature;BMP_pressure;BME280_temperature;BME280_humidity;BME280_pressure;Samples;Min_cycle;Max_cycle;Signal;HPM_P1;HPM_P2
2021/06/20 00:00:39;;;;;;;22.40;21.10;;;;;;;;;;5113884;28;20489;-86
2021/06/20 00:03:07;;;;;;;22.60;21.20;;;;;;;;;;5114376;28;20417;-86
2021/06/20 00:05:37;;;;;;;22.43;21.20;;;;;;;;;;5114873;28;20426;-85
2021/06/20 00:08:04;;;;;;;22.80;21.50;;;;;;;;;;5114865;28;20534;-86
2021/06/20 00:10:32;;;;;;;23.10;21.60;;;;;;;;;;5117853;28;20827;-86
2021/06/20 00:13:02;;;;;;;22.97;21.57;;;;;;;;;;5118108;28;20424;-86
2021/06/20 00:15:29;;;;;;;23.00;21.70;;;;;;;;;;5117964;28;20417;-86
2021/06/20 00:17:57;;;;;;;23.73;22.03;;;;;;;;;;5118334;28;20444;-86
2021/06/20 00:20:25;;;;;;;22.70;21.40;;;;;;;;;;5117601;28;20459;-85
2021/06/20 00:22:54;;;;;;;23.30;22.00;;;;;;;;;;5118038;28;20428;-86
2021/06/20 00:25:23;;;;;;;23.03;21.73;;;;;;;;;;5117626;28;20428;-85
2021/06/20 00:27:50;;;;;;;22.63;21.23;;;;;;;;;;5118214;28;20414;-86
2021/06/20 00:30:19;;;;;;;22.80;21.43;;;;;;;;;;5117668;28;20416;-85
2021/06/20 00:32:47;;;;;;;22.10;20.80;;;;;;;;;;5117460;28;20506;-86
2021/06/20 00:35:15;;;;;;;22.60;21.30;;;;;;;;;;5117612;28;20416;-87
2021/06/20 00:37:43;;;;;;;22.57;21.27;;;;;;;;;;5117368;28;20402;-86
2021/06/20 00:40:12;;;;;;;22.93;21.60;;;;;;;;;;5117430;28;20476;-86
2021/06/20 00:42:40;;;;;;;22.50;21.20;;;;;;;;;;5117455;28;20442;-86
2021/06/20 00:45:08;;;;;;;24.13;22.63;;;;;;;;;;5117882;28;20450;-86
2021/06/20 00:47:36;;;;;;;22.67;21.33;;;;;;;;;;5116343;28;20415;-86
2021/06/20 00:50:06;;;;;;;23.07;21.67;;;;;;;;;;5117172;28;20405;-85
2021/06/20 00:52:33;;;;;;;24.60;23.00;;;;;;;;;;5118254;28;20815;-86
2021/06/20 00:55:01;;;;;;;22.67;21.40;;;;;;;;;;5117194;28;20414;-85
2021/06/20 00:57:30;;;;;;;23.30;21.90;;;;;;;;;;5117365;28;20412;-86
2021/06/20 00:59:59;;;;;;;23.47;22.00;;;;;;;;;;5117186;28;20467;-86
2021/06/20 01:02:26;;;;;;;24.33;22.83;;;;;;;;;;5117100;28;20422;-86
2021/06/20 01:04:55;;;;;;;24.30;22.10;;;;;;;;;;5117578;28;20424;-84
2021/06/20 01:07:23;;;;;;;23.00;21.60;;;;;;;;;;5117130;28;20426;-85
2021/06/20 01:09:51;;;;;;;23.67;22.07;;;;;;;;;;5116502;28;20931;-86
2021/06/20 01:12:19;;;;;;;24.80;23.13;;;;;;;;;;5116768;28;20430;-86
2021/06/20 01:14:49;;;;;;;22.63;21.27;;;;;;;;;;5116993;28;20457;-86
2021/06/20 01:17:17;;;;;;;21.37;20.07;;;;;;;;;;5117294;28;20434;-86
2021/06/20 01:19:45;;;;;;;21.07;19.77;;;;;;;;;;5116238;28;20483;-86
2021/06/20 01:22:21;;;;;;;23.53;21.67;;;;;;;;;;5116613;28;20489;-86
2021/06/20 01:24:53;;;;;;;24.13;22.53;;;;;;;;;;5116690;28;20423;-87
2021/06/20 01:27:21;;;;;;;22.60;20.80;;;;;;;;;;5116519;28;20805;-86
2021/06/20 01:29:49;;;;;;;21.73;20.20;;;;;;;;;;5116568;28;20460;-87
2021/06/20 01:32:17;;;;;;;22.40;20.77;;;;;;;;;;5116851;28;20437;-87
2021/06/20 01:34:45;;;;;;;29.07;27.23;;;;;;;;;;5116609;28;20448;-87
2021/06/20 01:37:13;;;;;;;30.10;28.00;;;;;;;;;;5116730;28;20493;-88
2021/06/20 01:39:42;;;;;;;29.40;27.23;;;;;;;;;;5116593;28;20423;-88
2021/06/20 01:42:13;;;;;;;30.47;28.20;;;;;;;;;;5116408;28;20428;-88
2021/06/20 01:44:47;;;;;;;28.40;26.57;;;;;;;;;;5117053;28;20521;-87
2021/06/20 01:47:14;;;;;;;32.00;29.40;;;;;;;;;;5116426;28;20435;-88
2021/06/20 01:49:42;;;;;;;31.20;28.87;;;;;;;;;;5116142;28;20395;-88
2021/06/20 01:52:10;;;;;;;32.17;30.00;;;;;;;;;;5116363;28;20512;-88
2021/06/20 01:54:49;;;;;;;32.53;30.53;;;;;;;;;;5116223;28;20426;-87
2021/06/20 01:57:18;;;;;;;30.90;28.77;;;;;;;;;;5116112;28;20549;-87
2021/06/20 01:59:46;;;;;;;32.30;30.27;;;;;;;;;;5115219;28;20426;-87
2021/06/20 02:02:13;;;;;;;29.43;27.50;;;;;;;;;;5116075;28;20428;-87
2021/06/20 02:04:41;;;;;;;30.30;28.30;;;;;;;;;;5115859;28;20475;-87
2021/06/20 02:07:09;;;;;;;29.27;27.43;;;;;;;;;;5115784;28;20407;-87
2021/06/20 02:09:37;;;;;;;29.87;28.17;;;;;;;;;;5115385;28;20465;-87
2021/06/20 02:12:04;;;;;;;28.77;27.07;;;;;;;;;;5114826;28;20423;-87
2021/06/20 02:14:34;;;;;;;29.00;27.10;;;;;;;;;;5116544;28;20471;-87
2021/06/20 02:17:01;;;;;;;27.10;25.60;;;;;;;;;;5116443;28;20434;-87
2021/06/20 02:19:29;;;;;;;23.17;21.67;;;;;;;;;;5115568;28;20434;-87
2021/06/20 02:21:56;;;;;;;23.60;22.07;;;;;;;;;;5115364;28;20516;-86
2021/06/20 02:24:23;;;;;;;23.77;22.20;;;;;;;;;;5115852;28;20451;-86
2021/06/20 02:26:51;;;;;;;25.73;24.00;;;;;;;;;;5114335;28;20422;-87
2021/06/20 02:29:18;;;;;;;24.47;23.07;;;;;;;;;;5114535;28;20418;-86
2021/06/20 02:31:49;;;;;;;24.77;23.43;;;;;;;;;;5114589;28;20418;-86
2021/06/20 02:34:16;;;;;;;24.83;23.43;;;;;;;;;;5115346;28;20922;-86
2021/06/20 02:36:43;;;;;;;23.70;22.30;;;;;;;;;;5116137;28;20430;-86
2021/06/20 02:39:11;;;;;;;23.97;22.37;;;;;;;;;;5115868;28;20787;-86
2021/06/20 02:41:38;;;;;;;24.17;22.67;;;;;;;;;;5115415;28;20461;-86
2021/06/20 02:44:06;;;;;;;23.67;22.33;;;;;;;;;;5115241;28;20458;-86
2021/06/20 02:46:33;;;;;;;23.47;21.97;;;;;;;;;;5115040;28;20947;-86
2021/06/20 02:49:02;;;;;;;23.53;22.13;;;;;;;;;;5115083;28;20467;-87
2021/06/20 02:51:30;;;;;;;23.93;22.53;;;;;;;;;;5115355;28;20425;-87
2021/06/20 02:53:58;;;;;;;24.07;22.40;;;;;;;;;;5114109;28;20911;-87
2021/06/20 02:56:25;;;;;;;23.30;22.00;;;;;;;;;;5114971;28;20455;-86
2021/06/20 02:58:52;;;;;;;23.80;22.40;;;;;;;;;;5115517;28;20445;-87
2021/06/20 03:01:20;;;;;;;23.70;22.13;;;;;;;;;;5114818;28;20457;-87
2021/06/20 03:03:48;;;;;;;23.27;21.50;;;;;;;;;;5114908;28;20922;-87
2021/06/20 03:06:16;;;;;;;22.80;20.47;;;;;;;;;;5115524;28;20426;-87
2021/06/20 03:08:44;;;;;;;23.27;21.67;;;;;;;;;;5114557;28;20457;-87
2021/06/20 03:11:11;;;;;;;23.33;21.87;;;;;;;;;;5115637;28;20458;-86
2021/06/20 03:13:39;;;;;;;24.50;23.00;;;;;;;;;;5115380;28;20439;-86
2021/06/20 03:16:06;;;;;;;24.40;22.87;;;;;;;;;;5115200;28;20447;-86
2021/06/20 03:18:34;;;;;;;22.50;21.20;;;;;;;;;;5114609;28;20452;-87
2021/06/20 03:21:01;;;;;;;23.80;22.30;;;;;;;;;;5113513;28;20838;-87
2021/06/20 03:23:30;;;;;;;24.97;23.20;;;;;;;;;;5114830;28;20752;-86
2021/06/20 03:25:57;;;;;;;24.63;23.03;;;;;;;;;;5114718;28;20421;-86
2021/06/20 03:28:25;;;;;;;24.90;23.27;;;;;;;;;;5113480;28;20432;-86
2021/06/20 03:30:52;;;;;;;22.83;21.23;;;;;;;;;;5114886;28;20406;-86
2021/06/20 03:33:20;;;;;;;23.33;21.90;;;;;;;;;;5113765;28;20417;-86
2021/06/20 03:35:47;;;;;;;22.37;21.10;;;;;;;;;;5115045;28;20426;-86
2021/06/20 03:38:14;;;;;;;23.57;22.07;;;;;;;;;;5114774;28;20422;-86
2021/06/20 03:40:43;;;;;;;22.20;20.90;;;;;;;;;;5114521;28;20769;-86
2021/06/20 03:43:11;;;;;;;22.60;21.10;;;;;;;;;;5118188;28;20433;-86
2021/06/20 03:45:38;;;;;;;22.90;21.40;;;;;;;;;;5118685;28;20429;-86
2021/06/20 03:48:06;;;;;;;23.00;21.40;;;;;;;;;;5119324;28;20495;-86
2021/06/20 03:50:33;;;;;;;21.33;20.03;;;;;;;;;;5118418;28;20915;-86
2021/06/20 03:53:01;;;;;;;21.30;19.80;;;;;;;;;;5118781;28;20413;-86
2021/06/20 03:55:28;;;;;;;21.43;20.13;;;;;;;;;;5118302;28;20415;-86
2021/06/20 03:57:57;;;;;;;21.40;19.90;;;;;;;;;;5118504;28;20449;-86
2021/06/20 04:00:25;;;;;;;22.90;21.30;;;;;;;;;;5118955;28;20422;-86
2021/06/20 04:02:52;;;;;;;21.20;19.97;;;;;;;;;;5118325;28;20433;-86
2021/06/20 04:05:19;;;;;;;21.10;19.70;;;;;;;;;;5118276;28;20432;-86
2021/06/20 04:07:47;;;;;;;20.20;19.07;;;;;;;;;;5118058;28;20797;-86
2021/06/20 04:10:14;;;;;;;21.10;19.80;;;;;;;;;;5118842;28;20456;-86
2021/06/20 04:12:42;;;;;;;20.13;18.93;;;;;;;;;;5118177;28;20424;-86
2021/06/20 04:15:11;;;;;;;20.10;18.90;;;;;;;;;;5118054;28;20438;-86
2021/06/20 04:17:39;;;;;;;19.57;18.20;;;;;;;;;;5118319;28;20496;-86
2021/06/20 04:20:08;;;;;;;20.20;19.00;;;;;;;;;;5118531;28;20425;-86
2021/06/20 04:22:36;;;;;;;19.07;18.03;;;;;;;;;;5116920;28;20479;-86
2021/06/20 04:25:03;;;;;;;20.67;18.93;;;;;;;;;;5117800;28;20443;-81
2021/06/20 04:27:30;;;;;;;20.60;19.03;;;;;;;;;;5117371;28;20429;-81
2021/06/20 04:29:58;;;;;;;19.20;18.10;;;;;;;;;;5117170;28;20435;-81
2021/06/20 04:32:26;;;;;;;19.63;18.37;;;;;;;;;;5117725;28;20442;-86
2021/06/20 04:34:54;;;;;;;19.57;18.43;;;;;;;;;;5117675;28;20427;-86
2021/06/20 04:37:21;;;;;;;18.23;17.00;;;;;;;;;;5118018;28;20422;-83
2021/06/20 04:39:49;;;;;;;19.10;17.63;;;;;;;;;;5117348;28;20401;-82
2021/06/20 04:42:17;;;;;;;19.90;18.70;;;;;;;;;;5116765;28;20513;-82
2021/06/20 04:44:45;;;;;;;18.77;17.40;;;;;;;;;;5116931;28;20823;-81
2021/06/20 04:47:13;;;;;;;18.53;17.37;;;;;;;;;;5116886;28;20443;-81
2021/06/20 04:49:43;;;;;;;21.60;20.60;;;;;;;;;;5117143;28;20795;-81
2021/06/20 04:52:11;;;;;;;21.23;20.17;;;;;;;;;;5116764;27;20410;-82
2021/06/20 04:54:49;;;;;;;21.33;20.33;;;;;;;;;;5115871;28;20436;-82
2021/06/20 04:57:17;;;;;;;22.43;20.90;;;;;;;;;;5115703;28;20479;-82
2021/06/20 04:59:44;;;;;;;20.77;19.47;;;;;;;;;;5116899;28;20508;-82
2021/06/20 05:02:12;;;;;;;19.73;18.60;;;;;;;;;;5116821;28;20842;-82
2021/06/20 05:04:40;;;;;;;20.40;19.03;;;;;;;;;;5116532;28;20891;-81
2021/06/20 05:07:10;;;;;;;20.80;19.47;;;;;;;;;;5116689;28;20526;-80
2021/06/20 05:09:37;;;;;;;20.43;19.27;;;;;;;;;;5116214;28;20469;-82
2021/06/20 05:12:06;;;;;;;20.83;19.33;;;;;;;;;;5116599;28;20421;-82
2021/06/20 05:14:33;;;;;;;19.90;18.60;;;;;;;;;;5116291;28;20476;-81
2021/06/20 05:17:01;;;;;;;21.93;20.07;;;;;;;;;;5116562;28;20446;-82
2021/06/20 05:19:28;;;;;;;21.67;20.17;;;;;;;;;;5116528;28;20433;-82
2021/06/20 05:21:56;;;;;;;20.30;19.20;;;;;;;;;;5114926;28;20457;-82
2021/06/20 05:24:26;;;;;;;20.43;18.80;;;;;;;;;;5116367;28;20425;-81
2021/06/20 05:26:53;;;;;;;20.50;19.20;;;;;;;;;;5116294;28;20766;-81
2021/06/20 05:29:20;;;;;;;20.47;19.27;;;;;;;;;;5115974;28;20454;-82
2021/06/20 05:31:48;;;;;;;19.57;18.47;;;;;;;;;;5116031;28;20443;-81
2021/06/20 05:34:15;;;;;;;22.00;20.23;;;;;;;;;;5115964;28;20422;-81
2021/06/20 05:36:43;;;;;;;20.80;19.43;;;;;;;;;;5118307;28;20786;-82
2021/06/20 05:39:10;;;;;;;20.60;19.30;;;;;;;;;;5115886;28;20410;-82
2021/06/20 05:41:39;;;;;;;21.37;20.20;;;;;;;;;;5116034;28;20471;-81
2021/06/20 05:44:06;;;;;;;21.93;20.40;;;;;;;;;;5116102;28;20435;-82
2021/06/20 05:46:34;;;;;;;20.80;19.30;;;;;;;;;;5115667;28;20435;-82
2021/06/20 05:49:01;;;;;;;21.23;19.77;;;;;;;;;;5115599;28;20414;-82
2021/06/20 05:51:28;;;;;;;20.07;18.77;;;;;;;;;;5115702;28;20424;-82
2021/06/20 05:53:56;;;;;;;20.90;19.67;;;;;;;;;;5115562;28;20405;-82
2021/06/20 05:56:23;;;;;;;21.80;20.20;;;;;;;;;;5115383;28;20409;-83
2021/06/20 05:58:52;;;;;;;21.60;20.20;;;;;;;;;;5115755;28;20770;-82
2021/06/20 06:01:20;;;;;;;20.10;18.63;;;;;;;;;;5114776;28;20908;-82
2021/06/20 06:03:47;;;;;;;23.60;21.90;;;;;;;;;;5115553;28;20429;-82
2021/06/20 06:06:14;;;;;;;20.30;18.73;;;;;;;;;;5115240;28;20407;-81
2021/06/20 06:08:42;;;;;;;20.73;19.43;;;;;;;;;;5115223;28;20445;-82
2021/06/20 06:11:09;;;;;;;21.30;19.77;;;;;;;;;;5114943;28;20459;-82
2021/06/20 06:13:37;;;;;;;20.63;19.53;;;;;;;;;;5115187;28;20905;-82
2021/06/20 06:16:06;;;;;;;21.13;19.73;;;;;;;;;;5115380;28;20932;-82
2021/06/20 06:18:34;;;;;;;21.30;20.00;;;;;;;;;;5115067;28;20407;-83
2021/06/20 06:21:01;;;;;;;22.00;20.80;;;;;;;;;;5115027;28;20900;-82
2021/06/20 06:23:28;;;;;;;22.60;20.53;;;;;;;;;;5115223;28;20487;-81
2021/06/20 06:25:56;;;;;;;20.70;19.40;;;;;;;;;;5114860;28;20883;-81
2021/06/20 06:28:23;;;;;;;21.03;19.50;;;;;;;;;;5114886;28;20418;-82
2021/06/20 06:30:51;;;;;;;21.43;19.97;;;;;;;;;;5114910;28;20892;-82
2021/06/20 06:33:21;;;;;;;21.83;20.23;;;;;;;;;;5115100;28;20448;-82
2021/06/20 06:35:49;;;;;;;20.70;19.30;;;;;;;;;;5114801;28;20920;-82
2021/06/20 06:38:16;;;;;;;21.20;19.57;;;;;;;;;;5113892;28;20431;-82
2021/06/20 06:40:44;;;;;;;21.30;19.87;;;;;;;;;;5114801;28;20439;-85
2021/06/20 06:43:11;;;;;;;21.17;19.77;;;;;;;;;;5114376;28;20939;-82
2021/06/20 06:45:38;;;;;;;21.93;20.47;;;;;;;;;;5114928;28;20797;-82
2021/06/20 06:48:06;;;;;;;20.30;19.10;;;;;;;;;;5114815;27;20410;-82
2021/06/20 06:50:35;;;;;;;20.07;18.83;;;;;;;;;;5114539;28;20418;-82
2021/06/20 06:53:03;;;;;;;21.57;20.47;;;;;;;;;;5114592;28;20815;-82
2021/06/20 06:55:30;;;;;;;21.60;20.20;;;;;;;;;;5114305;28;20410;-82
2021/06/20 06:57:58;;;;;;;20.50;19.27;;;;;;;;;;5114377;28;20451;-82
2021/06/20 07:00:25;;;;;;;19.83;18.50;;;;;;;;;;5115229;28;20428;-81
2021/06/20 07:02:54;;;;;;;19.80;18.50;;;;;;;;;;5114439;28;20487;-81
2021/06/20 07:05:21;;;;;;;20.03;18.70;;;;;;;;;;5114328;28;20769;-81
2021/06/20 07:07:50;;;;;;;20.23;18.87;;;;;;;;;;5114263;28;20498;-82
2021/06/20 07:10:18;;;;;;;20.87;19.57;;;;;;;;;;5113965;28;20979;-82
2021/06/20 07:12:45;;;;;;;19.90;18.80;;;;;;;;;;5114550;28;20421;-82
2021/06/20 07:15:13;;;;;;;20.00;18.90;;;;;;;;;;5114464;28;20424;-82
2021/06/20 07:17:40;;;;;;;20.40;19.30;;;;;;;;;;5114004;28;20580;-81
2021/06/20 07:20:11;;;;;;;19.53;18.33;;;;;;;;;;5114085;28;20429;-82
2021/06/20 07:22:39;;;;;;;21.50;20.10;;;;;;;;;;5113992;28;21023;-82
2021/06/20 07:25:09;;;;;;;21.17;19.87;;;;;;;;;;5113892;28;20778;-81
2021/06/20 07:27:37;;;;;;;21.30;20.03;;;;;;;;;;5113954;28;20432;-82
2021/06/20 07:30:05;;;;;;;21.17;19.57;;;;;;;;;;5114214;28;20415;-82
2021/06/20 07:32:32;;;;;;;21.40;20.20;;;;;;;;;;5114261;28;20444;-81
2021/06/20 07:35:00;;;;;;;20.30;19.20;;;;;;;;;;5114334;28;20883;-81
2021/06/20 07:37:27;;;;;;;21.90;20.70;;;;;;;;;;5113836;28;20945;-82
2021/06/20 07:39:54;;;;;;;21.77;20.53;;;;;;;;;;5114148;28;20428;-81
2021/06/20 07:42:23;;;;;;;22.43;20.60;;;;;;;;;;5113848;28;20812;-82
2021/06/20 07:44:51;;;;;;;21.10;19.80;;;;;;;;;;5114185;28;20436;-82
2021/06/20 07:47:18;;;;;;;21.33;19.87;;;;;;;;;;5112642;28;20957;-81
2021/06/20 07:49:45;;;;;;;21.50;20.30;;;;;;;;;;5113933;28;20790;-82
2021/06/20 07:52:13;;;;;;;23.33;21.90;;;;;;;;;;5113788;28;20447;-82
2021/06/20 07:54:49;;;;;;;22.73;21.43;;;;;;;;;;5113439;28;20410;-81
2021/06/20 07:57:16;;;;;;;22.00;20.60;;;;;;;;;;5113833;28;20453;-82
2021/06/20 07:59:46;;;;;;;21.93;20.57;;;;;;;;;;5113876;28;20444;-82
2021/06/20 08:02:13;;;;;;;22.67;21.37;;;;;;;;;;5113647;28;20487;-81
2021/06/20 08:04:41;;;;;;;22.17;20.80;;;;;;;;;;5112561;28;20908;-82
2021/06/20 08:07:09;;;;;;;21.67;20.47;;;;;;;;;;5113694;28;20429;-81
2021/06/20 08:09:37;;;;;;;23.13;21.17;;;;;;;;;;5113313;28;20469;-81
2021/06/20 08:12:05;;;;;;;22.13;20.73;;;;;;;;;;5113879;28;20411;-81
2021/06/20 08:14:33;;;;;;;22.03;20.70;;;;;;;;;;5113554;28;20438;-82
2021/06/20 08:17:02;;;;;;;21.90;20.70;;;;;;;;;;5113837;28;20443;-83
2021/06/20 08:19:29;;;;;;;21.83;20.53;;;;;;;;;;5113897;28;20420;-80
2021/06/20 08:21:57;;;;;;;22.07;20.80;;;;;;;;;;5112314;28;20432;-80
2021/06/20 08:24:24;;;;;;;21.77;20.37;;;;;;;;;;5113463;28;20417;-81
2021/06/20 08:26:52;;;;;;;21.47;20.27;;;;;;;;;;5113533;28;20410;-81
2021/06/20 08:29:19;;;;;;;22.40;21.00;;;;;;;;;;5115086;28;20447;-81
2021/06/20 08:31:47;;;;;;;23.00;21.70;;;;;;;;;;5117117;28;20431;-81
2021/06/20 08:34:16;;;;;;;21.90;20.50;;;;;;;;;;5118133;28;20767;-81
2021/06/20 08:36:43;;;;;;;21.17;19.97;;;;;;;;;;5117275;28;20414;-81
2021/06/20 08:39:10;;;;;;;22.07;20.77;;;;;;;;;;5117327;28;20460;-81
2021/06/20 08:41:40;;;;;;;23.27;21.93;;;;;;;;;;5116866;28;20441;-81
2021/06/20 08:44:15;;;;;;;23.27;21.47;;;;;;;;;;5117073;28;20450;-81
2021/06/20 08:46:42;;;;;;;22.00;20.80;;;;;;;;;;5117073;28;20439;-80
2021/06/20 08:49:11;;;;;;;22.53;21.07;;;;;;;;;;5117121;28;20410;-81
2021/06/20 08:51:40;;;;;;;21.83;20.47;;;;;;;;;;5117124;28;20511;-81
2021/06/20 08:54:07;;;;;;;22.83;21.43;;;;;;;;;;5117009;28;20430;-81
2021/06/20 08:56:35;;;;;;;21.93;20.53;;;;;;;;;;5116830;28;20419;-79
2021/06/20 08:59:05;;;;;;;22.70;21.50;;;;;;;;;;5115539;28;20740;-80
2021/06/20 09:01:33;;;;;;;23.20;22.00;;;;;;;;;;5116848;28;20411;-80
2021/06/20 09:04:00;;;;;;;22.53;21.23;;;;;;;;;;5116358;27;20475;-80
2021/06/20 09:06:28;;;;;;;22.87;21.57;;;;;;;;;;5116388;28;20435;-80
2021/06/20 09:08:57;;;;;;;23.40;21.97;;;;;;;;;;5116110;28;20453;-80
2021/06/20 09:11:26;;;;;;;22.53;21.23;;;;;;;;;;5116678;28;20432;-81
2021/06/20 09:14:01;;;;;;;22.63;21.33;;;;;;;;;;5116316;28;20399;-80
2021/06/20 09:16:28;;;;;;;22.80;21.40;;;;;;;;;;5116481;28;20451;-80
2021/06/20 09:18:56;;;;;;;22.63;21.33;;;;;;;;;;5116219;28;20435;-81
2021/06/20 09:21:24;;;;;;;22.17;20.77;;;;;;;;;;5116447;28;20444;-81
2021/06/20 09:23:52;;;;;;;22.30;21.10;;;;;;;;;;5116390;28;20464;-81
2021/06/20 09:26:32;;;;;;;22.77;21.37;;;;;;;;;;5114875;28;20795;-81
2021/06/20 09:28:59;;;;;;;22.70;21.40;;;;;;;;;;5116304;28;20407;-80
2021/06/20 09:31:27;;;;;;;22.20;20.90;;;;;;;;;;5115919;28;20436;-79
2021/06/20 09:34:00;;;;;;;23.93;22.53;;;;;;;;;;5116287;28;20443;-79
2021/06/20 09:36:31;;;;;;;23.63;22.33;;;;;;;;;;5115927;28;20417;-79
2021/06/20 09:38:58;;;;;;;23.27;21.97;;;;;;;;;;5115855;28;20406;-78
2021/06/20 09:41:27;;;;;;;22.93;21.73;;;;;;;;;;5113858;28;20432;-82
2021/06/20 09:43:55;;;;;;;23.33;21.90;;;;;;;;;;5115779;28;20474;-83
2021/06/20 09:46:23;;;;;;;23.20;21.80;;;;;;;;;;5116012;28;20877;-84
2021/06/20 09:48:51;;;;;;;22.37;21.27;;;;;;;;;;5116113;28;20923;-83
2021/06/20 09:51:20;;;;;;;22.27;20.90;;;;;;;;;;5115819;28;20438;-84
2021/06/20 09:53:49;;;;;;;23.23;21.93;;;;;;;;;;5115780;28;20817;-85
2021/06/20 09:56:17;;;;;;;24.30;22.80;;;;;;;;;;5115723;28;20459;-92
2021/06/20 09:58:47;;;;;;;23.40;21.93;;;;;;;;;;5116244;28;20418;-86
2021/06/20 10:01:15;;;;;;;23.10;21.80;;;;;;;;;;5115982;28;20429;-86
2021/06/20 10:03:43;;;;;;;23.70;22.40;;;;;;;;;;5116232;28;20457;-86
2021/06/20 10:06:12;;;;;;;22.83;21.47;;;;;;;;;;5116171;28;20402;-86
2021/06/20 10:08:39;;;;;;;23.43;22.07;;;;;;;;;;5115625;28;20480;-85
2021/06/20 10:11:07;;;;;;;23.10;21.70;;;;;;;;;;5116303;27;20447;-85
2021/06/20 10:13:34;;;;;;;23.13;21.83;;;;;;;;;;5115632;28;20451;-86
2021/06/20 10:16:14;;;;;;;24.50;23.00;;;;;;;;;;5115936;28;20435;-86
2021/06/20 10:18:46;;;;;;;23.33;22.03;;;;;;;;;;5115918;28;20415;-85
2021/06/20 10:21:14;;;;;;;23.47;22.17;;;;;;;;;;5115788;28;20422;-86
2021/06/20 10:23:41;;;;;;;22.27;20.97;;;;;;;;;;5115654;28;20458;-87
2021/06/20 10:26:09;;;;;;;22.30;21.00;;;;;;;;;;5115574;28;20448;-86
2021/06/20 10:28:37;;;;;;;23.60;22.10;;;;;;;;;;5114465;28;20422;-85
2021/06/20 10:31:08;;;;;;;22.90;21.60;;;;;;;;;;5115236;28;20438;-85
2021/06/20 10:33:38;;;;;;;22.30;20.90;;;;;;;;;;5115471;28;20440;-85
2021/06/20 10:36:09;;;;;;;23.20;22.00;;;;;;;;;;5115087;28;20456;-85
2021/06/20 10:38:39;;;;;;;22.80;21.50;;;;;;;;;;5115481;28;20419;-85
2021/06/20 10:41:08;;;;;;;22.53;21.33;;;;;;;;;;5114306;28;20440;-86
2021/06/20 10:43:38;;;;;;;22.37;21.17;;;;;;;;;;5114972;28;20455;-82
2021/06/20 10:46:14;;;;;;;22.37;21.17;;;;;;;;;;5113886;28;20789;-82
2021/06/20 10:48:43;;;;;;;21.67;20.47;;;;;;;;;;5114521;28;20811;-82
2021/06/20 10:51:17;;;;;;;22.70;21.50;;;;;;;;;;5114317;28;20431;-81
2021/06/20 10:53:45;;;;;;;22.60;21.30;;;;;;;;;;5114547;28;20428;-82
2021/06/20 10:56:20;;;;;;;23.20;21.43;;;;;;;;;;5114270;28;20403;-82
2021/06/20 10:58:49;;;;;;;22.60;21.30;;;;;;;;;;5114659;28;20410;-82
2021/06/20 11:01:17;;;;;;;22.70;21.40;;;;;;;;;;5115407;28;20426;-82
2021/06/20 11:03:48;;;;;;;22.37;21.17;;;;;;;;;;5114592;28;20451;-82
2021/06/20 11:06:16;;;;;;;22.13;20.93;;;;;;;;;;5114359;28;20439;-82
2021/06/20 11:08:44;;;;;;;22.40;20.93;;;;;;;;;;5114023;28;20490;-82
2021/06/20 11:11:13;;;;;;;22.97;21.67;;;;;;;;;;5114181;28;20499;-82
2021/06/20 11:13:42;;;;;;;22.23;20.87;;;;;;;;;;5113079;28;20469;-82
2021/06/20 11:16:11;;;;;;;22.87;21.57;;;;;;;;;;5114101;28;20846;-82
2021/06/20 11:18:38;;;;;;;21.90;20.70;;;;;;;;;;5114657;28;20428;-82
2021/06/20 11:21:08;;;;;;;22.77;21.27;;;;;;;;;;5113285;28;20418;-86
2021/06/20 11:23:36;;;;;;;22.73;21.43;;;;;;;;;;5114009;28;20496;-82
2021/06/20 11:26:04;;;;;;;23.07;21.60;;;;;;;;;;5114055;28;20464;-82
2021/06/20 11:28:32;;;;;;;22.47;21.07;;;;;;;;;;5115569;28;20436;-86
2021/06/20 11:31:06;;;;;;;21.70;20.50;;;;;;;;;;5115446;28;20412;-88
2021/06/20 11:33:34;;;;;;;24.20;22.80;;;;;;;;;;5114086;28;20439;-82
2021/06/20 11:36:01;;;;;;;26.37;24.50;;;;;;;;;;5113749;28;20431;-82
2021/06/20 11:38:34;;;;;;;22.80;21.10;;;;;;;;;;5113911;28;20939;-82
2021/06/20 11:41:19;;;;;;;21.60;20.40;;;;;;;;;;5113881;28;20900;-82
2021/06/20 11:43:57;;;;;;;23.07;21.47;;;;;;;;;;5113727;28;20476;-82
2021/06/20 11:46:25;;;;;;;21.70;20.40;;;;;;;;;;5114046;28;20412;-82
2021/06/20 11:48:57;;;;;;;22.40;21.10;;;;;;;;;;5113773;28;20430;-82
2021/06/20 11:51:31;;;;;;;22.63;21.33;;;;;;;;;;5113729;28;20441;-82
2021/06/20 11:54:13;;;;;;;22.00;20.70;;;;;;;;;;5113671;28;20442;-82
2021/06/20 11:56:41;;;;;;;23.30;22.00;;;;;;;;;;5113563;28;20911;-82
2021/06/20 11:59:10;;;;;;;22.80;21.50;;;;;;;;;;5113744;28;20434;-82
2021/06/20 12:01:55;;;;;;;36.43;33.97;;;;;;;;;;5114044;28;20453;-82
2021/06/20 12:04:23;;;;;;;43.27;40.10;;;;;;;;;;5116778;28;20452;-82
2021/06/20 12:06:51;;;;;;;22.90;21.60;;;;;;;;;;5117846;28;20412;-82
2021/06/20 12:09:22;;;;;;;39.40;36.80;;;;;;;;;;5117300;28;21010;-82
2021/06/20 12:11:56;;;;;;;26.20;24.50;;;;;;;;;;5117916;28;20437;-82
2021/06/20 12:14:25;;;;;;;28.40;26.70;;;;;;;;;;5117900;28;20399;-82
2021/06/20 12:16:53;;;;;;;22.70;21.40;;;;;;;;;;5117769;28;20409;-83
2021/06/20 12:19:21;;;;;;;22.77;21.33;;;;;;;;;;5117735;28;20446;-82
2021/06/20 12:21:50;;;;;;;22.30;21.07;;;;;;;;;;5117694;28;20410;-82
2021/06/20 12:24:17;;;;;;;23.33;21.93;;;;;;;;;;5117234;28;20487;-81
2021/06/20 12:26:50;;;;;;;22.33;21.07;;;;;;;;;;5117212;28;20407;-82
2021/06/20 12:29:18;;;;;;;23.33;22.03;;;;;;;;;;5116175;28;20919;-82
2021/06/20 12:31:58;;;;;;;22.67;21.40;;;;;;;;;;5117488;28;20408;-82
2021/06/20 12:34:25;;;;;;;22.53;21.23;;;;;;;;;;5117468;28;20406;-82
2021/06/20 12:37:02;;;;;;;26.13;24.57;;;;;;;;;;5117117;28;20420;-82
2021/06/20 12:39:40;;;;;;;31.77;29.47;;;;;;;;;;5117154;28;20400;-82
2021/06/20 12:42:10;;;;;;;27.60;25.90;;;;;;;;;;5115906;28;20479;-83
2021/06/20 12:44:41;;;;;;;26.90;25.17;;;;;;;;;;5117184;28;20456;-82
2021/06/20 12:47:09;;;;;;;23.67;22.07;;;;;;;;;;5116840;28;20411;-82
2021/06/20 12:49:36;;;;;;;26.63;24.73;;;;;;;;;;5116833;28;20404;-82
2021/06/20 12:52:04;;;;;;;28.07;26.07;;;;;;;;;;5117140;28;20408;-82
2021/06/20 12:54:39;;;;;;;30.10;27.63;;;;;;;;;;5117088;28;20442;-82
2021/06/20 12:57:08;;;;;;;29.93;27.93;;;;;;;;;;5116974;28;20809;-82
2021/06/20 12:59:41;;;;;;;24.20;22.70;;;;;;;;;;5116648;28;20494;-82
2021/06/20 13:02:09;;;;;;;38.50;35.40;;;;;;;;;;5115649;28;20513;-82
2021/06/20 13:04:36;;;;;;;25.40;23.90;;;;;;;;;;5116463;28;20945;-82
2021/06/20 13:07:04;;;;;;;29.37;27.37;;;;;;;;;;5116718;28;20419;-82
2021/06/20 13:09:31;;;;;;;24.37;22.90;;;;;;;;;;5116296;28;20488;-82
2021/06/20 13:11:59;;;;;;;24.67;23.10;;;;;;;;;;5116572;28;20424;-82
2021/06/20 13:14:28;;;;;;;25.77;24.13;;;;;;;;;;5114459;28;20771;-82
2021/06/20 13:16:57;;;;;;;23.13;21.83;;;;;;;;;;5116580;28;20422;-83
2021/06/20 13:19:24;;;;;;;23.83;22.43;;;;;;;;;;5116543;28;20417;-83
2021/06/20 13:21:51;;;;;;;23.83;22.27;;;;;;;;;;5116321;28;20401;-83
2021/06/20 13:24:19;;;;;;;22.80;21.50;;;;;;;;;;5116148;28;20471;-82
2021/06/20 13:26:47;;;;;;;22.80;21.40;;;;;;;;;;5116233;28;20834;-82
2021/06/20 13:29:15;;;;;;;22.70;21.40;;;;;;;;;;5116361;28;20417;-83
2021/06/20 13:31:44;;;;;;;22.40;20.97;;;;;;;;;;5115979;28;20423;-82
2021/06/20 13:34:13;;;;;;;22.77;21.27;;;;;;;;;;5116008;28;20411;-82
2021/06/20 13:36:40;;;;;;;22.70;21.30;;;;;;;;;;5116245;28;20752;-82
2021/06/20 13:39:07;;;;;;;22.37;20.97;;;;;;;;;;5115899;28;20435;-82
2021/06/20 13:41:35;;;;;;;22.30;21.00;;;;;;;;;;5115771;28;20457;-83
2021/06/20 13:44:02;;;;;;;21.97;20.63;;;;;;;;;;5115695;28;20477;-82
2021/06/20 13:46:30;;;;;;;21.97;20.57;;;;;;;;;;5115784;28;20446;-82
2021/06/20 13:48:57;;;;;;;23.33;21.80;;;;;;;;;;5116034;28;20433;-82
2021/06/20 13:51:26;;;;;;;21.83;20.63;;;;;;;;;;5114718;28;20429;-83
2021/06/20 13:53:54;;;;;;;22.30;20.97;;;;;;;;;;5115931;28;20439;-82
2021/06/20 13:56:21;;;;;;;22.60;21.03;;;;;;;;;;5115777;28;20488;-82
2021/06/20 13:58:48;;;;;;;22.63;21.33;;;;;;;;;;5115618;28;20438;-83
2021/06/20 14:01:16;;;;;;;22.00;20.80;;;;;;;;;;5115954;28;20900;-85
2021/06/20 14:03:43;;;;;;;22.23;20.93;;;;;;;;;;5115812;28;20437;-82
2021/06/20 14:06:10;;;;;;;22.10;20.87;;;;;;;;;;5115436;28;20443;-82
2021/06/20 14:08:39;;;;;;;22.80;21.50;;;;;;;;;;5115113;28;20940;-83
2021/06/20 14:11:06;;;;;;;22.00;20.70;;;;;;;;;;5115583;28;20442;-82
2021/06/20 14:13:34;;;;;;;22.00;20.70;;;;;;;;;;5115232;28;20416;-82
2021/06/20 14:16:01;;;;;;;21.73;20.53;;;;;;;;;;5115414;28;20409;-82
2021/06/20 14:18:28;;;;;;;22.47;21.17;;;;;;;;;;5115439;28;20582;-83
2021/06/20 14:20:56;;;;;;;25.20;23.30;;;;;;;;;;5115143;28;20399;-82
2021/06/20 14:23:24;;;;;;;21.97;20.77;;;;;;;;;;5114974;28;20941;-83